Time,TemperatureF,DewpointF,PressureIn,WindDirection,WindDirectionDegrees,WindSpeedMPH,WindSpeedGustMPH,Humidity,HourlyPrecipIn,Conditions,Clouds,dailyrainin,SoftwareType,DateUTC
2013-09-21 00:00:00,54.7,53.6,30.01,ESE,116,0.0,0.0,96,0.00,,,0.00,Wunderground v.1.15,2013-09-21 04:00:00,
2013-09-21 00:10:00,54.8,53.7,30.01,ESE,116,0.0,0.0,96,0.00,,,0.00,Wunderground v.1.15,2013-09-21 04:10:00,
2013-09-21 00:20:00,54.8,53.7,30.01,ESE,116,0.0,0.0,96,0.00,,,0.00,Wunderground v.1.15,2013-09-21 04:20:00,
2013-09-21 00:30:00,54.7,53.6,30.01,ESE,116,0.0,0.0,96,0.00,,,0.00,Wunderground v.1.15,2013-09-21 04:30:00,
2013-09-21 00:50:00,54.9,54.1,30.01,ESE,116,0.0,0.0,97,0.00,,,0.00,Wunderground v.1.15,2013-09-21 04:50:00,
2013-09-21 01:00:00,54.9,54.1,30.01,ESE,116,0.0,0.0,97,0.00,,,0.00,Wunderground v.1.15,2013-09-21 05:00:00,
2013-09-21 01:10:00,54.9,54.1,30.00,ESE,106,0.0,0.0,97,0.00,,,0.00,Wunderground v.1.15,2013-09-21 05:10:00,
2013-09-21 01:20:00,54.7,53.6,30.00,ESE,106,0.0,0.0,96,0.00,,,0.00,Wunderground v.1.15,2013-09-21 05:20:00,
2013-09-21 01:30:00,54.3,53.2,30.00,ESE,106,0.0,0.0,96,0.00,,,0.00,Wunderground v.1.15,2013-09-21 05:30:00,
2013-09-21 01:40:00,54.2,53.4,29.99,ESE,106,0.0,0.0,97,0.00,,,0.00,Wunderground v.1.15,2013-09-21 05:40:00,
2013-09-21 01:50:00,54.3,53.5,29.99,ESE,106,0.0,0.0,97,0.00,,,0.00,Wunderground v.1.15,2013-09-21 05:50:00,
2013-09-21 02:00:00,54.1,53.3,29.99,ESE,106,0.0,0.0,97,0.00,,,0.00,Wunderground v.1.15,2013-09-21 06:00:00,
2013-09-21 02:10:00,54.0,53.2,29.98,ESE,106,0.0,0.0,97,0.00,,,0.00,Wunderground v.1.15,2013-09-21 06:10:00,
2013-09-21 02:20:00,53.9,53.1,29.98,ESE,106,0.0,0.0,97,0.00,,,0.00,Wunderground v.1.15,2013-09-21 06:20:00,
2013-09-21 02:30:00,54.0,53.2,29.97,ESE,106,0.0,0.0,97,0.00,,,0.00,Wunderground v.1.15,2013-09-21 06:30:00,
2013-09-21 02:40:00,53.8,53.0,29.97,East,92,0.0,0.0,97,0.00,,,0.00,Wunderground v.1.15,2013-09-21 06:40:00,
2013-09-21 02:50:00,53.6,52.8,29.97,East,92,0.0,0.0,97,0.00,,,0.00,Wunderground v.1.15,2013-09-21 06:50:00,
2013-09-21 03:00:00,53.6,52.8,29.97,East,92,0.0,0.0,97,0.00,,,0.00,Wunderground v.1.15,2013-09-21 07:00:00,
2013-09-21 03:10:00,53.6,52.8,29.96,East,92,0.0,0.0,97,0.00,,,0.00,Wunderground v.1.15,2013-09-21 07:10:00,
2013-09-21 03:20:00,53.5,52.7,29.96,East,92,0.0,0.0,97,0.00,,,0.00,Wunderground v.1.15,2013-09-21 07:20:00,
2013-09-21 03:30:00,53.4,52.6,29.96,East,92,0.0,0.0,97,0.00,,,0.00,Wunderground v.1.15,2013-09-21 07:30:00,
2013-09-21 03:40:00,53.7,53.1,29.96,East,92,0.0,0.0,98,0.00,,,0.00,Wunderground v.1.15,2013-09-21 07:40:00,
2013-09-21 03:50:00,53.6,53.0,29.96,East,92,0.0,0.0,98,0.00,,,0.00,Wunderground v.1.15,2013-09-21 07:50:00,
2013-09-21 04:00:00,53.4,52.8,29.96,East,92,0.0,0.0,98,0.00,,,0.00,Wunderground v.1.15,2013-09-21 08:00:00,
2013-09-21 04:10:00,53.8,53.2,29.96,East,92,0.0,0.0,98,0.00,,,0.00,Wunderground v.1.15,2013-09-21 08:10:00,
2013-09-21 04:20:00,53.8,53.2,29.95,East,92,0.0,0.0,98,0.00,,,0.00,Wunderground v.1.15,2013-09-21 08:20:00,
2013-09-21 04:30:00,53.8,53.2,29.94,East,92,0.0,0.0,98,0.00,,,0.00,Wunderground v.1.15,2013-09-21 08:30:00,
2013-09-21 04:40:00,53.5,52.9,29.94,East,92,0.0,0.0,98,0.00,,,0.00,Wunderground v.1.15,2013-09-21 08:40:00,
2013-09-21 04:50:00,53.7,53.1,29.95,East,86,0.0,0.0,98,0.00,,,0.00,Wunderground v.1.15,2013-09-21 08:50:00,
2013-09-21 05:00:00,53.9,53.3,29.95,East,86,0.0,0.0,98,0.00,,,0.00,Wunderground v.1.15,2013-09-21 09:00:00,
2013-09-21 05:10:00,54.6,54.0,29.95,East,86,0.0,0.0,98,0.00,,,0.00,Wunderground v.1.15,2013-09-21 09:10:00,
2013-09-21 05:20:00,55.1,54.5,29.95,East,86,0.0,0.0,98,0.00,,,0.00,Wunderground v.1.15,2013-09-21 09:20:00,
2013-09-21 05:30:00,55.7,55.1,29.95,East,86,0.0,0.0,98,0.00,,,0.00,Wunderground v.1.15,2013-09-21 09:30:00,
2013-09-21 05:40:00,56.1,55.5,29.95,East,86,0.0,0.0,98,0.00,,,0.00,Wunderground v.1.15,2013-09-21 09:40:00,
2013-09-21 05:50:00,56.0,55.4,29.94,East,86,0.0,0.0,98,0.00,,,0.00,Wunderground v.1.15,2013-09-21 09:50:00,
2013-09-21 06:00:00,56.0,55.4,29.94,East,86,0.0,0.0,98,0.00,,,0.00,Wunderground v.1.15,2013-09-21 10:00:00,
2013-09-21 06:10:00,55.8,55.2,29.94,East,86,0.0,0.0,98,0.00,,,0.00,Wunderground v.1.15,2013-09-21 10:10:00,
2013-09-21 06:20:00,56.0,55.4,29.94,East,86,0.0,0.0,98,0.00,,,0.00,Wunderground v.1.15,2013-09-21 10:20:00,
2013-09-21 06:30:00,56.4,55.8,29.94,East,86,0.0,0.0,98,0.00,,,0.00,Wunderground v.1.15,2013-09-21 10:30:00,
2013-09-21 06:40:00,56.8,56.2,29.95,East,86,0.0,0.0,98,0.00,,,0.00,Wunderground v.1.15,2013-09-21 10:40:00,
2013-09-21 06:50:00,57.1,56.5,29.94,East,86,0.0,0.0,98,0.00,,,0.00,Wunderground v.1.15,2013-09-21 10:50:00,
2013-09-21 07:00:00,57.1,56.5,29.95,East,86,0.0,0.0,98,0.00,,,0.00,Wunderground v.1.15,2013-09-21 11:00:00,
2013-09-21 07:10:00,57.0,56.4,29.95,East,86,0.0,0.0,98,0.00,,,0.00,Wunderground v.1.15,2013-09-21 11:10:00,
2013-09-21 07:20:00,57.0,56.4,29.95,East,86,0.0,0.0,98,0.00,,,0.00,Wunderground v.1.15,2013-09-21 11:20:00,
2013-09-21 07:30:00,58.1,57.5,29.95,WNW,288,0.0,0.0,98,0.00,,,0.00,Wunderground v.1.15,2013-09-21 11:30:00,
2013-09-21 07:40:00,58.6,58.0,29.95,SSW,207,1.0,1.0,98,0.00,,,0.00,Wunderground v.1.15,2013-09-21 11:40:00,
2013-09-21 07:50:00,59.0,58.4,29.94,SSE,167,0.0,0.0,98,0.00,,,0.00,Wunderground v.1.15,2013-09-21 11:50:00,
2013-09-21 08:00:00,59.8,59.2,29.94,SE,143,0.0,0.0,98,0.00,,,0.00,Wunderground v.1.15,2013-09-21 12:00:00,
2013-09-21 08:10:00,60.2,59.6,29.94,East,93,0.0,0.0,98,0.00,,,0.00,Wunderground v.1.15,2013-09-21 12:10:00,
2013-09-21 08:20:00,60.8,60.2,29.94,ESE,119,0.0,0.0,98,0.00,,,0.00,Wunderground v.1.15,2013-09-21 12:20:00,
2013-09-21 08:30:00,63.0,62.1,29.93,East,81,0.0,0.0,97,0.00,,,0.00,Wunderground v.1.15,2013-09-21 12:30:00,
2013-09-21 08:40:00,65.0,63.5,29.93,East,99,0.0,4.0,95,0.00,,,0.00,Wunderground v.1.15,2013-09-21 12:40:00,
2013-09-21 08:50:00,67.5,63.5,29.92,ESE,104,0.0,4.0,87,0.00,,,0.00,Wunderground v.1.15,2013-09-21 12:50:00,
2013-09-21 09:00:00,68.9,63.9,29.92,ENE,75,1.0,1.0,84,0.00,,,0.00,Wunderground v.1.15,2013-09-21 13:00:00,
2013-09-21 09:10:00,70.4,63.2,29.92,East,81,0.0,0.0,78,0.00,,,0.00,Wunderground v.1.15,2013-09-21 13:10:00,
2013-09-21 09:20:00,72.0,62.1,29.92,ESE,103,0.0,0.0,71,0.00,,,0.00,Wunderground v.1.15,2013-09-21 13:20:00,
2013-09-21 09:30:00,72.1,59.7,29.92,SE,134,1.0,1.0,65,0.00,,,0.00,Wunderground v.1.15,2013-09-21 13:30:00,
2013-09-21 09:40:00,73.2,59.8,29.92,ESE,117,1.0,2.0,63,0.00,,,0.00,Wunderground v.1.15,2013-09-21 13:40:00,
2013-09-21 09:50:00,73.8,59.0,29.91,SE,135,2.0,2.0,60,0.00,,,0.00,Wunderground v.1.15,2013-09-21 13:50:00,
2013-09-21 10:00:00,73.9,60.1,29.91,WSW,245,1.0,1.0,62,0.00,,,0.00,Wunderground v.1.15,2013-09-21 14:00:00,
2013-09-21 10:10:00,74.9,59.6,29.91,SE,138,1.0,2.0,59,0.00,,,0.00,Wunderground v.1.15,2013-09-21 14:10:00,
2013-09-21 10:20:00,74.8,61.4,29.90,ESE,120,2.0,2.0,63,0.00,,,0.00,Wunderground v.1.15,2013-09-21 14:20:00,
2013-09-21 10:30:00,75.7,63.1,29.90,ENE,65,1.0,1.0,65,0.00,,,0.00,Wunderground v.1.15,2013-09-21 14:30:00,
2013-09-21 10:40:00,76.1,60.7,29.90,SSE,165,2.0,2.0,59,0.00,,,0.00,Wunderground v.1.15,2013-09-21 14:40:00,
2013-09-21 10:50:00,77.2,61.3,29.89,SW,231,1.0,5.0,58,0.00,,,0.00,Wunderground v.1.15,2013-09-21 14:50:00,
2013-09-21 11:00:00,77.8,60.8,29.89,NNE,33,1.0,4.0,56,0.00,,,0.00,Wunderground v.1.15,2013-09-21 15:00:00,
2013-09-21 11:10:00,77.8,61.3,29.89,WNW,283,2.0,2.0,57,0.00,,,0.00,Wunderground v.1.15,2013-09-21 15:10:00,
2013-09-21 11:20:00,77.7,60.2,29.89,WNW,290,2.0,2.0,55,0.00,,,0.00,Wunderground v.1.15,2013-09-21 15:20:00,
2013-09-21 11:30:00,77.4,61.5,29.88,SSE,147,2.0,2.0,58,0.00,,,0.00,Wunderground v.1.15,2013-09-21 15:30:00,
2013-09-21 11:40:00,77.9,62.9,29.88,East,99,2.0,2.0,60,0.00,,,0.00,Wunderground v.1.15,2013-09-21 15:40:00,
2013-09-21 11:50:00,77.8,61.3,29.88,ENE,75,2.0,2.0,57,0.00,,,0.00,Wunderground v.1.15,2013-09-21 15:50:00,
2013-09-21 12:00:00,77.5,61.1,29.87,East,91,3.0,3.0,57,0.00,,,0.00,Wunderground v.1.15,2013-09-21 16:00:00,
2013-09-21 12:10:00,77.0,61.6,29.86,WSW,238,4.0,4.0,59,0.00,,,0.00,Wunderground v.1.15,2013-09-21 16:10:00,
2013-09-21 12:20:00,77.8,61.8,29.86,NNE,20,3.0,3.0,58,0.00,,,0.00,Wunderground v.1.15,2013-09-21 16:20:00,
2013-09-21 12:30:00,77.7,61.3,29.86,East,93,3.0,6.0,57,0.00,,,0.00,Wunderground v.1.15,2013-09-21 16:30:00,
2013-09-21 12:40:00,77.4,60.5,29.85,NNW,335,5.0,5.0,56,0.00,,,0.00,Wunderground v.1.15,2013-09-21 16:40:00,
2013-09-21 12:50:00,77.6,59.1,29.85,East,91,5.0,5.0,53,0.00,,,0.00,Wunderground v.1.15,2013-09-21 16:50:00,
2013-09-21 13:00:00,78.7,59.0,29.84,NE,56,3.0,3.0,51,0.00,,,0.00,Wunderground v.1.15,2013-09-21 17:00:00,
2013-09-21 13:10:00,78.4,58.8,29.84,NNE,15,4.0,7.0,51,0.00,,,0.00,Wunderground v.1.15,2013-09-21 17:10:00,
2013-09-21 13:20:00,79.2,58.4,29.84,SE,146,3.0,9.0,49,0.00,,,0.00,Wunderground v.1.15,2013-09-21 17:20:00,
2013-09-21 13:30:00,79.6,58.8,29.83,NNE,25,3.0,4.0,49,0.00,,,0.00,Wunderground v.1.15,2013-09-21 17:30:00,
2013-09-21 13:40:00,78.9,57.5,29.82,NNE,20,4.0,11.0,48,0.00,,,0.00,Wunderground v.1.15,2013-09-21 17:40:00,
2013-09-21 13:50:00,79.2,59.0,29.82,SE,140,3.0,11.0,50,0.00,,,0.00,Wunderground v.1.15,2013-09-21 17:50:00,
2013-09-21 14:00:00,79.0,59.9,29.81,West,259,4.0,4.0,52,0.00,,,0.00,Wunderground v.1.15,2013-09-21 18:00:00,
2013-09-21 14:10:00,78.6,61.6,29.81,SSE,155,4.0,4.0,56,0.00,,,0.00,Wunderground v.1.15,2013-09-21 18:10:00,
2013-09-21 14:20:00,78.4,62.9,29.80,ENE,77,4.0,4.0,59,0.00,,,0.00,Wunderground v.1.15,2013-09-21 18:20:00,
2013-09-21 14:30:00,79.1,64.0,29.80,WNW,303,2.0,4.0,60,0.00,,,0.00,Wunderground v.1.15,2013-09-21 18:30:00,
2013-09-21 14:40:00,77.9,63.4,29.80,ESE,108,5.0,12.0,61,0.00,,,0.00,Wunderground v.1.15,2013-09-21 18:40:00,
2013-09-21 14:50:00,77.0,64.8,29.80,SSE,157,5.0,5.0,66,0.00,,,0.00,Wunderground v.1.15,2013-09-21 18:50:00,
2013-09-21 15:00:00,76.9,65.1,29.80,WNW,294,4.0,4.0,67,0.00,,,0.00,Wunderground v.1.15,2013-09-21 19:00:00,
2013-09-21 15:10:00,76.6,65.7,29.79,SE,143,4.0,4.0,69,0.00,,,0.00,Wunderground v.1.15,2013-09-21 19:10:00,
2013-09-21 15:20:00,76.0,65.5,29.79,South,188,5.0,6.0,70,0.00,,,0.00,Wunderground v.1.15,2013-09-21 19:20:00,
2013-09-21 15:30:00,76.0,66.3,29.78,South,172,4.0,7.0,72,0.00,,,0.00,Wunderground v.1.15,2013-09-21 19:30:00,
2013-09-21 15:40:00,76.2,66.1,29.77,East,84,5.0,14.0,71,0.00,,,0.00,Wunderground v.1.15,2013-09-21 19:40:00,
2013-09-21 15:50:00,76.6,66.1,29.77,ESE,118,6.0,6.0,70,0.00,,,0.00,Wunderground v.1.15,2013-09-21 19:50:00,
2013-09-21 16:00:00,76.7,66.2,29.77,East,91,6.0,6.0,70,0.00,,,0.00,Wunderground v.1.15,2013-09-21 20:00:00,
2013-09-21 16:10:00,76.6,66.5,29.76,SE,131,6.0,12.0,71,0.00,,,0.00,Wunderground v.1.15,2013-09-21 20:10:00,
2013-09-21 16:20:00,76.3,66.2,29.76,SSE,147,6.0,6.0,71,0.00,,,0.00,Wunderground v.1.15,2013-09-21 20:20:00,
2013-09-21 16:30:00,76.6,66.5,29.76,East,95,5.0,5.0,71,0.00,,,0.00,Wunderground v.1.15,2013-09-21 20:30:00,
2013-09-21 16:40:00,76.5,66.4,29.76,East,97,4.0,4.0,71,0.00,,,0.00,Wunderground v.1.15,2013-09-21 20:40:00,
2013-09-21 16:50:00,76.2,66.5,29.75,NE,40,4.0,4.0,72,0.00,,,0.00,Wunderground v.1.15,2013-09-21 20:50:00,
2013-09-21 17:00:00,75.7,66.4,29.75,ESE,106,4.0,4.0,73,0.00,,,0.00,Wunderground v.1.15,2013-09-21 21:00:00,
2013-09-21 17:10:00,75.2,66.7,29.75,SE,127,4.0,4.0,75,0.00,,,0.00,Wunderground v.1.15,2013-09-21 21:10:00,
2013-09-21 17:20:00,75.1,67.0,29.75,East,84,4.0,4.0,76,0.00,,,0.00,Wunderground v.1.15,2013-09-21 21:20:00,
2013-09-21 17:30:00,74.9,66.8,29.75,East,79,4.0,5.0,76,0.00,,,0.00,Wunderground v.1.15,2013-09-21 21:30:00,
2013-09-21 17:40:00,74.6,66.9,29.75,East,91,5.0,15.0,77,0.00,,,0.00,Wunderground v.1.15,2013-09-21 21:40:00,
2013-09-21 17:50:00,74.4,66.7,29.74,SSE,162,4.0,4.0,77,0.00,,,0.00,Wunderground v.1.15,2013-09-21 21:50:00,
2013-09-21 18:00:00,74.1,66.8,29.74,East,86,3.0,3.0,78,0.00,,,0.00,Wunderground v.1.15,2013-09-21 22:00:00,
2013-09-21 18:10:00,73.9,67.0,29.74,East,84,2.0,2.0,79,0.00,,,0.00,Wunderground v.1.15,2013-09-21 22:10:00,
2013-09-21 18:20:00,73.6,67.0,29.74,East,81,2.0,2.0,80,0.00,,,0.00,Wunderground v.1.15,2013-09-21 22:20:00,
2013-09-21 18:30:00,73.5,66.9,29.74,SSE,149,4.0,4.0,80,0.00,,,0.00,Wunderground v.1.15,2013-09-21 22:30:00,
2013-09-21 18:40:00,73.3,66.8,29.74,WSW,256,3.0,3.0,80,0.00,,,0.00,Wunderground v.1.15,2013-09-21 22:40:00,
2013-09-21 18:50:00,73.2,66.7,29.73,WSW,242,3.0,16.0,80,0.00,,,0.00,Wunderground v.1.15,2013-09-21 22:50:00,
2013-09-21 19:00:00,73.2,67.0,29.73,ESE,122,3.0,3.0,81,0.00,,,0.00,Wunderground v.1.15,2013-09-21 23:00:00,
2013-09-21 19:10:00,73.0,67.2,29.73,SE,124,4.0,4.0,82,0.00,,,0.00,Wunderground v.1.15,2013-09-21 23:10:00,
2013-09-21 19:20:00,72.9,67.4,29.73,SE,128,3.0,3.0,83,0.00,,,0.00,Wunderground v.1.15,2013-09-21 23:20:00,
2013-09-21 19:30:00,72.9,67.1,29.73,NE,41,3.0,4.0,82,0.00,,,0.00,Wunderground v.1.15,2013-09-21 23:30:00,
2013-09-21 19:40:00,72.9,66.7,29.73,East,86,4.0,4.0,81,0.00,,,0.00,Wunderground v.1.15,2013-09-21 23:40:00,
2013-09-21 19:50:00,73.0,66.8,29.73,ENE,60,4.0,10.0,81,0.00,,,0.00,Wunderground v.1.15,2013-09-21 23:50:00,
2013-09-21 20:00:00,72.3,67.5,29.73,ENE,74,3.0,3.0,85,0.00,,,0.00,Wunderground v.1.15,2013-09-22 00:00:00,
2013-09-21 20:10:00,71.8,67.4,29.73,SE,146,3.0,3.0,86,0.00,,,0.00,Wunderground v.1.15,2013-09-22 00:10:00,
2013-09-21 20:20:00,71.6,67.5,29.73,ESE,105,3.0,7.0,87,0.00,,,0.01,Wunderground v.1.15,2013-09-22 00:20:00,
2013-09-21 20:30:00,71.2,67.5,29.73,East,86,3.0,3.0,88,0.00,,,0.01,Wunderground v.1.15,2013-09-22 00:30:00,
2013-09-21 20:40:00,71.1,67.7,29.72,East,83,2.0,2.0,89,0.00,,,0.01,Wunderground v.1.15,2013-09-22 00:40:00,
2013-09-21 20:50:00,71.2,67.8,29.72,NNE,30,3.0,3.0,89,0.00,,,0.01,Wunderground v.1.15,2013-09-22 00:50:00,
2013-09-21 21:00:00,71.0,67.6,29.72,East,86,2.0,2.0,89,0.00,,,0.01,Wunderground v.1.15,2013-09-22 01:00:00,
2013-09-21 21:10:00,71.0,67.6,29.72,SE,136,3.0,3.0,89,0.00,,,0.01,Wunderground v.1.15,2013-09-22 01:10:00,
2013-09-21 21:20:00,70.9,67.8,29.72,West,279,2.0,2.0,90,0.00,,,0.01,Wunderground v.1.15,2013-09-22 01:20:00,
2013-09-21 21:30:00,70.8,67.7,29.71,SSW,210,2.0,2.0,90,0.00,,,0.01,Wunderground v.1.15,2013-09-22 01:30:00,
2013-09-21 21:40:00,70.7,67.6,29.71,East,96,2.0,2.0,90,0.00,,,0.01,Wunderground v.1.15,2013-09-22 01:40:00,
2013-09-21 21:50:00,70.8,67.7,29.71,SE,126,2.0,2.0,90,0.00,,,0.01,Wunderground v.1.15,2013-09-22 01:50:00,
2013-09-21 22:00:00,70.8,67.7,29.71,East,81,2.0,2.0,90,0.00,,,0.01,Wunderground v.1.15,2013-09-22 02:00:00,
2013-09-21 22:10:00,70.9,67.8,29.71,SSE,155,2.0,2.0,90,0.00,,,0.01,Wunderground v.1.15,2013-09-22 02:10:00,
2013-09-21 22:20:00,70.9,67.8,29.71,East,84,2.0,2.0,90,0.00,,,0.01,Wunderground v.1.15,2013-09-22 02:20:00,
2013-09-21 22:30:00,70.7,67.6,29.71,East,83,2.0,2.0,90,0.00,,,0.01,Wunderground v.1.15,2013-09-22 02:30:00,
2013-09-21 22:40:00,70.6,67.5,29.71,East,91,2.0,2.0,90,0.00,,,0.01,Wunderground v.1.15,2013-09-22 02:40:00,
2013-09-21 22:50:00,70.3,67.2,29.71,SE,139,2.0,10.0,90,0.00,,,0.01,Wunderground v.1.15,2013-09-22 02:50:00,
2013-09-21 23:00:00,70.0,67.3,29.71,ESE,118,1.0,3.0,91,0.00,,,0.02,Wunderground v.1.15,2013-09-22 03:00:00,
2013-09-21 23:10:00,69.8,67.1,29.70,ESE,112,2.0,4.0,91,0.00,,,0.02,Wunderground v.1.15,2013-09-22 03:10:00,
2013-09-21 23:20:00,69.5,67.4,29.70,ENE,71,2.0,2.0,93,0.00,,,0.03,Wunderground v.1.15,2013-09-22 03:20:00,
2013-09-21 23:30:00,69.2,67.1,29.70,SSE,160,1.0,1.0,93,0.00,,,0.03,Wunderground v.1.15,2013-09-22 03:30:00,
2013-09-21 23:40:00,69.2,67.4,29.70,East,99,2.0,9.0,94,0.00,,,0.03,Wunderground v.1.15,2013-09-22 03:40:00,
2013-09-21 23:50:00,69.2,67.4,29.70,SSE,148,2.0,2.0,94,0.00,,,0.04,Wunderground v.1.15,2013-09-22 03:50:00,